Pickle Lake, Canada
Current Conditions -  °F | °C
As of 9:00 AM on Wednesday 22 Oct 2014 (Local Time) from CYPL Reporting Station
Broken Clouds Broken Clouds  
Wind Chill: 32°   Ceiling: 23000
Heat Index: 39°   Visibility: 15mi
Dew Point: 34°   Wind: 10mph
Humidity: 81%   Direction: 180°S
Pressure: 30.05"   Gusts: 20mph
Location:  51.47°N, 90.18°W
Report Text: CYPL 221400Z 18009G17KT 140V200 15SM FEW090 BKN230 04/01 A3005 RMK AC2CI3 SLP193
Loading
Personal Weather Stations






























Interactive Weather Map
Tropical Storm Tracking
New forecast layout! Learn more

10-Day Weather Forecast

Advertisements
Track Severe Weather on mobile